createdAt,value
2023-01-08T00:01:38.442Z,100980.88
2023-01-08T00:04:07.143Z,100972.28
2023-01-08T00:06:36.646Z,100979.47
2023-01-08T00:09:05.265Z,100983.84
2023-01-08T00:11:33.630Z,100974.97
2023-01-08T00:14:01.949Z,100970.59
2023-01-08T00:16:32.430Z,100971.59
2023-01-08T00:19:00.784Z,100970.88
2023-01-08T00:21:29.739Z,100977.06
2023-01-08T00:23:58.092Z,100978.50
2023-01-08T00:26:26.483Z,100981.59
2023-01-08T00:28:55.028Z,100992.81
2023-01-08T00:31:23.630Z,100996.91
2023-01-08T00:33:53.415Z,101002.13
2023-01-08T00:36:21.851Z,101005.38
2023-01-08T00:38:50.264Z,101010.44
2023-01-08T00:41:18.940Z,101006.50
2023-01-08T00:43:47.353Z,100965.97
2023-01-08T00:46:16.763Z,101000.44
2023-01-08T00:48:45.157Z,100987.50
2023-01-08T00:51:15.089Z,100982.28
2023-01-08T00:53:43.440Z,100997.34
2023-01-08T00:56:12.194Z,101006.78
2023-01-08T00:58:40.591Z,100992.28
2023-01-08T01:01:13.737Z,100967.78
2023-01-08T01:03:42.572Z,100991.88
2023-01-08T01:06:13.325Z,100975.13
2023-01-08T01:08:44.421Z,100996.53
2023-01-08T01:11:20.267Z,100977.38
2023-01-08T01:13:49.351Z,101011.47
2023-01-08T01:16:17.873Z,101018.50
2023-01-08T01:18:46.439Z,101018.50
2023-01-08T01:21:19.198Z,101009.63
2023-01-08T01:23:48.954Z,100993.44
2023-01-08T01:26:18.820Z,100980.22
2023-01-08T01:28:49.517Z,100959.66
2023-01-08T01:31:18.287Z,100970.63
2023-01-08T01:33:47.577Z,100969.66
2023-01-08T01:36:17.740Z,100958.94
2023-01-08T01:38:46.649Z,100961.63
2023-01-08T01:41:24.651Z,100933.47
2023-01-08T01:43:53.539Z,100950.94
2023-01-08T01:46:28.077Z,100934.59
2023-01-08T01:48:59.688Z,100945.31
2023-01-08T01:51:32.928Z,100827.97
2023-01-08T01:54:03.758Z,100939.38
2023-01-08T01:56:34.006Z,100929.53
2023-01-08T01:59:02.560Z,100921.66
2023-01-08T02:01:32.855Z,100920.09
2023-01-08T02:04:02.178Z,100913.78
2023-01-08T02:06:38.544Z,100921.66
2023-01-08T02:09:15.849Z,100912.94
2023-01-08T02:12:12.683Z,100901.53
2023-01-08T02:14:50.257Z,100885.34
2023-01-08T02:17:25.545Z,100819.66
2023-01-08T02:19:58.881Z,100879.16
2023-01-08T02:22:39.254Z,100885.91
2023-01-08T02:25:12.718Z,100882.09
2023-01-08T02:27:45.927Z,100877.72
2023-01-08T02:30:14.448Z,100873.22
2023-01-08T02:32:44.116Z,100859.59
2023-01-08T02:35:13.179Z,100865.06
2023-01-08T02:37:42.148Z,100873.94
2023-01-08T02:40:22.055Z,100877.44
2023-01-08T02:42:59.270Z,100869.28
2023-01-08T02:45:38.399Z,100860.28
2023-01-08T02:48:13.441Z,100844.09
2023-01-08T02:50:45.941Z,100820.59
2023-01-08T02:53:18.044Z,100797.66
2023-01-08T02:55:51.359Z,100766.03
2023-01-08T02:58:24.586Z,100797.50
2023-01-08T03:00:54.819Z,100786.09
2023-01-08T03:03:26.310Z,100770.22
2023-01-08T03:05:58.237Z,100761.78
2023-01-08T03:08:27.441Z,100783.13
2023-01-08T03:11:02.080Z,100788.19
2023-01-08T03:13:38.614Z,100769.38
2023-01-08T03:16:12.795Z,100799.88
2023-01-08T03:18:47.450Z,100820.84
2023-01-08T03:21:19.238Z,100824.38
2023-01-08T03:23:49.124Z,100822.53
2023-01-08T03:26:21.365Z,100789.50
2023-01-08T03:28:54.625Z,100752.84
2023-01-08T03:31:26.311Z,100772.34
2023-01-08T03:33:56.335Z,100806.50
2023-01-08T03:36:28.397Z,100766.44
2023-01-08T03:39:02.531Z,100795.53
2023-01-08T03:41:34.225Z,100796.25
2023-01-08T03:44:04.596Z,100779.53
2023-01-08T03:46:35.420Z,100765.44
2023-01-08T03:49:06.343Z,100760.94
2023-01-08T03:51:41.324Z,100763.47
2023-01-08T03:54:12.915Z,100746.75
2023-01-08T03:56:41.201Z,100736.34
2023-01-08T03:59:12.350Z,100733.94
2023-01-08T04:01:41.058Z,100745.19
2023-01-08T04:04:10.663Z,100739.84
2023-01-08T04:06:39.266Z,100744.22
2023-01-08T04:09:07.917Z,100743.06
2023-01-08T04:11:36.392Z,100735.91
2023-01-08T04:14:04.780Z,100736.75
2023-01-08T04:16:34.864Z,100741.81
2023-01-08T04:19:03.255Z,100748.00
2023-01-08T04:21:31.756Z,100747.16
2023-01-08T04:24:00.085Z,100749.69
2023-01-08T04:26:28.413Z,100740.97
2023-01-08T04:28:56.752Z,100741.09
2023-01-08T04:31:25.186Z,100746.31
2023-01-08T04:33:55.036Z,100741.50
2023-01-08T04:36:23.412Z,100722.09
2023-01-08T04:38:51.785Z,100715.06
2023-01-08T04:41:20.133Z,100716.06
2023-01-08T04:43:48.554Z,100701.97
2023-01-08T04:46:17.007Z,100691.72
2023-01-08T04:48:45.459Z,100689.19
2023-01-08T04:51:15.320Z,100656.28
2023-01-08T04:53:43.723Z,100639.75
2023-01-08T04:56:13.191Z,100664.03
2023-01-08T04:58:41.914Z,100710.69
2023-01-08T05:01:15.705Z,100717.44
2023-01-08T05:03:46.455Z,100715.47
2023-01-08T05:06:16.240Z,100703.78
2023-01-08T05:08:44.558Z,100707.44
2023-01-08T05:11:12.919Z,100709.00
2023-01-08T05:13:41.251Z,100658.31
2023-01-08T05:16:09.840Z,100719.25
2023-01-08T05:18:38.282Z,100709.25
2023-01-08T05:21:07.419Z,100705.72
2023-01-08T05:23:37.305Z,100717.41
2023-01-08T05:26:07.282Z,100714.03
2023-01-08T05:28:36.547Z,100711.38
2023-01-08T05:31:05.247Z,100703.50
2023-01-08T05:33:33.611Z,100709.00
2023-01-08T05:36:02.021Z,100714.34
2023-01-08T05:38:30.305Z,100717.84
2023-01-08T05:41:00.096Z,100728.56
2023-01-08T05:43:28.471Z,100743.19
2023-01-08T05:45:59.657Z,100729.59
2023-01-08T05:48:29.191Z,100753.31
2023-01-08T05:50:57.804Z,100738.97
2023-01-08T05:53:26.157Z,100742.63
2023-01-08T05:56:01.860Z,100716.91
2023-01-08T05:58:30.436Z,100757.56
2023-01-08T06:01:03.787Z,100750.22
2023-01-08T06:03:32.203Z,100751.91
2023-01-08T06:06:01.909Z,100715.09
2023-01-08T06:08:30.738Z,100743.75
2023-01-08T06:11:02.147Z,100738.97
2023-01-08T06:13:30.686Z,100736.97
2023-01-08T06:16:00.460Z,100732.31
2023-01-08T06:18:29.595Z,100748.22
2023-01-08T06:20:58.087Z,100758.09
2023-01-08T06:23:26.423Z,100763.13
2023-01-08T06:25:55.949Z,100754.41
2023-01-08T06:28:25.932Z,100747.09
2023-01-08T06:30:54.394Z,100738.38
2023-01-08T06:33:23.807Z,100730.66
2023-01-08T06:35:52.239Z,100737.56
2023-01-08T06:38:21.433Z,100742.06
2023-01-08T06:40:51.012Z,100741.91
2023-01-08T06:43:23.966Z,100744.59
2023-01-08T06:45:58.447Z,100746.56
2023-01-08T06:48:27.461Z,100746.31
2023-01-08T06:50:56.450Z,100754.91
2023-01-08T06:53:25.108Z,100749.28
2023-01-08T06:55:57.236Z,100753.09
2023-01-08T06:58:26.401Z,100748.88
2023-01-08T07:00:56.279Z,100745.66
2023-01-08T07:03:24.948Z,100716.28
2023-01-08T07:05:53.288Z,100716.69
2023-01-08T07:08:22.678Z,100712.50
2023-01-08T07:10:51.004Z,100723.31
2023-01-08T07:13:19.401Z,100721.63
2023-01-08T07:15:47.740Z,100723.59
2023-01-08T07:18:17.636Z,100711.94
2023-01-08T07:20:46.163Z,100715.88
2023-01-08T07:23:14.575Z,100722.50
2023-01-08T07:25:42.877Z,100722.50
2023-01-08T07:28:13.996Z,100712.94
2023-01-08T07:30:43.352Z,100721.25
2023-01-08T07:33:11.634Z,100716.72
2023-01-08T07:35:41.406Z,100717.56
2023-01-08T07:38:09.680Z,100722.91
2023-01-08T07:40:39.353Z,100714.06
2023-01-08T07:43:07.959Z,100713.78
2023-01-08T07:45:36.434Z,100709.97
2023-01-08T07:48:05.095Z,100713.50
2023-01-08T07:50:33.472Z,100718.84
2023-01-08T07:53:03.510Z,100726.56
2023-01-08T07:55:32.530Z,100722.22
2023-01-08T07:58:00.943Z,100719.38
2023-01-08T08:00:29.412Z,100720.78
2023-01-08T08:03:03.162Z,100715.16
2023-01-08T08:05:33.149Z,100708.69
2023-01-08T08:08:02.906Z,100704.59
2023-01-08T08:10:31.266Z,100695.97
2023-01-08T08:12:59.639Z,100702.16
2023-01-08T08:15:28.009Z,100694.53
2023-01-08T08:17:56.574Z,100686.09
2023-01-08T08:20:24.919Z,100684.53
2023-01-08T08:22:53.522Z,100679.91
2023-01-08T08:25:23.286Z,100672.56
2023-01-08T08:27:51.647Z,100670.16
2023-01-08T08:30:20.044Z,100669.44
2023-01-08T08:32:48.412Z,100668.44
2023-01-08T08:35:16.907Z,100658.44
2023-01-08T08:37:45.275Z,100642.09
2023-01-08T08:40:14.273Z,100622.69
2023-01-08T08:42:44.015Z,100631.88
2023-01-08T08:45:12.605Z,100593.56
2023-01-08T08:47:41.084Z,100637.69
2023-01-08T08:50:11.831Z,100626.94
2023-01-08T08:52:40.253Z,100613.66
2023-01-08T08:55:09.146Z,100607.66
2023-01-08T08:57:37.498Z,100601.84
2023-01-08T09:00:08.656Z,100597.88
2023-01-08T09:02:37.591Z,100594.34
2023-01-08T09:05:06.658Z,100587.84
2023-01-08T09:07:35.102Z,100584.41
2023-01-08T09:10:03.662Z,100577.25
2023-01-08T09:12:32.367Z,100564.09
2023-01-08T09:15:00.659Z,100570.97
2023-01-08T09:17:30.457Z,100561.63
2023-01-08T09:19:58.831Z,100558.09
2023-01-08T09:22:27.303Z,100563.31
2023-01-08T09:24:56.753Z,100566.03
2023-01-08T09:27:25.378Z,100580.84
2023-01-08T09:29:53.825Z,100582.72
2023-01-08T09:32:22.193Z,100558.66
2023-01-08T09:34:52.012Z,100595.28
2023-01-08T09:37:20.366Z,100593.28
2023-01-08T09:39:57.731Z,100586.78
2023-01-08T09:42:31.839Z,100566.84
2023-01-08T09:45:02.523Z,100569.00
2023-01-08T09:47:34.003Z,100563.50
2023-01-08T09:50:09.501Z,100460.72
2023-01-08T09:52:39.797Z,100565.03
2023-01-08T09:55:15.396Z,100573.44
2023-01-08T09:57:44.605Z,100572.94
2023-01-08T10:00:16.313Z,100560.72
2023-01-08T10:02:45.559Z,100577.19
2023-01-08T10:05:17.718Z,100577.72
2023-01-08T10:07:46.943Z,100587.28
2023-01-08T10:10:21.369Z,100581.41
2023-01-08T10:12:52.026Z,100570.84
2023-01-08T10:15:22.422Z,100583.94
2023-01-08T10:17:57.305Z,100573.06
2023-01-08T10:20:27.696Z,100582.47
2023-01-08T10:22:56.753Z,100582.13
2023-01-08T10:25:27.390Z,100578.66
2023-01-08T10:28:00.460Z,100554.81
2023-01-08T10:30:36.540Z,100586.53
2023-01-08T10:33:08.348Z,100549.16
2023-01-08T10:35:40.811Z,100539.09
2023-01-08T10:38:26.548Z,100566.31
2023-01-08T10:40:55.361Z,100570.34
2023-01-08T10:43:28.522Z,100501.69
2023-01-08T10:46:00.739Z,100545.00
2023-01-08T10:48:35.096Z,100579.59
2023-01-08T10:51:16.008Z,100561.09
2023-01-08T10:53:44.952Z,100577.72
2023-01-08T10:56:24.327Z,100587.63
2023-01-08T10:58:53.381Z,100593.66
2023-01-08T11:01:35.432Z,100582.78
2023-01-08T11:04:23.922Z,100436.81
2023-01-08T11:06:59.798Z,100562.50
2023-01-08T11:09:32.132Z,100565.00
2023-01-08T11:12:00.888Z,100557.63
2023-01-08T11:14:32.273Z,100537.84
2023-01-08T11:17:00.731Z,100543.22
2023-01-08T11:19:32.804Z,100541.19
2023-01-08T11:22:05.484Z,100533.97
2023-01-08T11:24:35.631Z,100524.59
2023-01-08T11:27:09.219Z,100493.06
2023-01-08T11:29:45.849Z,100517.19
2023-01-08T11:32:29.348Z,100472.06
2023-01-08T11:35:03.451Z,100486.84
2023-01-08T11:37:36.975Z,100470.06
2023-01-08T11:40:14.966Z,100484.97
2023-01-08T11:43:09.954Z,100493.06
2023-01-08T11:45:49.506Z,100487.97
2023-01-08T11:48:35.476Z,100475.09
2023-01-08T11:51:26.273Z,100472.88
2023-01-08T11:54:06.280Z,100464.53
2023-01-08T11:56:52.438Z,100459.44
2023-01-08T11:59:31.070Z,100458.31
2023-01-08T12:02:09.165Z,100444.88
2023-01-08T12:05:03.734Z,100460.66
2023-01-08T12:07:42.621Z,100421.38
2023-01-08T12:10:20.474Z,100448.22
2023-01-08T12:13:00.136Z,100440.66
2023-01-08T12:15:46.254Z,100442.84
2023-01-08T12:18:26.326Z,100399.09
2023-01-08T12:21:02.509Z,100390.38
2023-01-08T12:23:48.851Z,100379.81
2023-01-08T12:26:28.799Z,100374.28
2023-01-08T12:29:31.416Z,100399.91
2023-01-08T12:32:31.910Z,100391.34
2023-01-08T12:35:09.276Z,100352.97
2023-01-08T12:37:45.484Z,100374.91
2023-01-08T12:40:18.208Z,100370.38
2023-01-08T12:43:00.074Z,100363.63
2023-01-08T12:45:31.756Z,100333.34
2023-01-08T12:48:04.880Z,100355.41
2023-01-08T12:50:49.578Z,100328.09
2023-01-08T12:53:28.092Z,100339.97
2023-01-08T12:56:04.492Z,100345.69
2023-01-08T12:58:44.829Z,100319.84
2023-01-08T13:01:25.508Z,100345.63
2023-01-08T13:03:56.325Z,100334.22
2023-01-08T13:06:24.772Z,100327.50
2023-01-08T13:08:55.184Z,100323.63
2023-01-08T13:11:30.453Z,100285.44
2023-01-08T13:14:09.324Z,100305.31
2023-01-08T13:16:40.527Z,100301.63
2023-01-08T13:19:23.441Z,100292.56
2023-01-08T13:21:54.062Z,100277.75
2023-01-08T13:24:30.956Z,100278.25
2023-01-08T13:27:12.119Z,100240.13
2023-01-08T13:29:43.288Z,100264.69
2023-01-08T13:32:27.291Z,100259.63
2023-01-08T13:35:04.599Z,100230.47
2023-01-08T13:37:32.908Z,100242.81
2023-01-08T13:40:01.264Z,100239.19
2023-01-08T13:42:31.546Z,100223.44
2023-01-08T13:45:03.203Z,100220.75
2023-01-08T13:47:35.274Z,100209.81
2023-01-08T13:50:08.331Z,100087.97
2023-01-08T13:52:44.193Z,100193.31
2023-01-08T13:55:18.066Z,100225.59
2023-01-08T13:57:50.795Z,100209.91
2023-01-08T14:00:25.548Z,100235.97
2023-01-08T14:02:55.356Z,100239.03
2023-01-08T14:05:27.141Z,100249.41
2023-01-08T14:07:55.941Z,100233.00
2023-01-08T14:10:25.029Z,100251.75
2023-01-08T14:12:53.896Z,100250.06
2023-01-08T14:15:27.055Z,100242.50
2023-01-08T14:17:57.096Z,100238.78
2023-01-08T14:20:33.056Z,100245.66
2023-01-08T14:23:03.091Z,100225.19
2023-01-08T14:25:31.861Z,100217.13
2023-01-08T14:28:02.789Z,100188.81
2023-01-08T14:30:33.078Z,100205.53
2023-01-08T14:33:03.059Z,100210.25
2023-01-08T14:35:34.852Z,100216.81
2023-01-08T14:38:05.865Z,100215.50
2023-01-08T14:40:38.374Z,100139.13
2023-01-08T14:43:11.229Z,100214.00
2023-01-08T14:45:47.911Z,100194.13
2023-01-08T14:48:23.294Z,100219.19
2023-01-08T14:51:07.610Z,100217.88
2023-01-08T14:53:38.895Z,100156.56
2023-01-08T14:56:08.644Z,100219.56
2023-01-08T14:58:40.251Z,100226.59
2023-01-08T15:01:16.674Z,100229.09
2023-01-08T15:03:46.962Z,100238.34
2023-01-08T15:06:25.724Z,100218.91
2023-01-08T15:08:54.289Z,100213.97
2023-01-08T15:11:24.368Z,100102.41
2023-01-08T15:13:54.313Z,100209.47
2023-01-08T15:16:30.083Z,100176.09
2023-01-08T15:19:05.536Z,100137.44
2023-01-08T15:21:35.993Z,100171.38
2023-01-08T15:24:06.296Z,100179.44
2023-01-08T15:26:35.080Z,100183.78
2023-01-08T15:29:06.724Z,100165.44
2023-01-08T15:31:49.549Z,100203.25
2023-01-08T15:34:21.411Z,100205.28
2023-01-08T15:36:50.795Z,100187.16
2023-01-08T15:39:19.215Z,100185.94
2023-01-08T15:42:05.087Z,100187.44
2023-01-08T15:44:33.551Z,100177.72
2023-01-08T15:47:03.376Z,100176.03
2023-01-08T15:49:31.752Z,100168.16
2023-01-08T15:52:01.146Z,100157.59
2023-01-08T15:54:29.471Z,100156.09
2023-01-08T15:56:57.810Z,100150.06
2023-01-08T15:59:26.170Z,100143.13
2023-01-08T16:01:54.544Z,100146.81
2023-01-08T16:04:24.539Z,100146.16
2023-01-08T16:06:52.863Z,100144.66
2023-01-08T16:09:21.279Z,100147.19
2023-01-08T16:11:49.796Z,100161.63
2023-01-08T16:14:18.127Z,100166.97
2023-01-08T16:16:46.504Z,100173.19
2023-01-08T16:19:14.983Z,100168.84
2023-01-08T16:21:47.785Z,100183.25
2023-01-08T16:24:16.163Z,100197.22
2023-01-08T16:26:45.468Z,100194.69
2023-01-08T16:29:13.870Z,100198.56
2023-01-08T16:31:46.639Z,100195.06
2023-01-08T16:34:16.357Z,100199.78
2023-01-08T16:36:46.105Z,100204.16
2023-01-08T16:39:14.434Z,100195.06
2023-01-08T16:41:42.799Z,100157.47
2023-01-08T16:44:19.564Z,100138.22
2023-01-08T16:46:48.297Z,100132.91
2023-01-08T16:49:16.799Z,100128.22
2023-01-08T16:51:46.634Z,100145.88
2023-01-08T16:54:15.321Z,100148.91
2023-01-08T16:56:44.383Z,100144.13
2023-01-08T16:59:22.873Z,100159.50
2023-01-08T17:01:53.468Z,100146.78
2023-01-08T17:04:22.008Z,100147.81
2023-01-08T17:06:51.771Z,100153.16
2023-01-08T17:09:20.191Z,100147.31
2023-01-08T17:11:48.987Z,100142.47
2023-01-08T17:14:17.443Z,100137.44
2023-01-08T17:16:47.723Z,100129.94
2023-01-08T17:19:16.686Z,100127.59
2023-01-08T17:21:46.106Z,100118.06
2023-01-08T17:24:15.860Z,100125.28
2023-01-08T17:26:44.244Z,100139.03
2023-01-08T17:29:12.574Z,100142.72
2023-01-08T17:31:41.156Z,100145.91
2023-01-08T17:34:13.043Z,100144.41
2023-01-08T17:36:42.537Z,100161.16
2023-01-08T17:39:12.301Z,100161.72
2023-01-08T17:42:01.857Z,100178.31
2023-01-08T17:44:31.248Z,100169.94
2023-01-08T17:46:59.544Z,100190.53
2023-01-08T17:49:28.053Z,100186.34
2023-01-08T17:51:57.187Z,100183.66
2023-01-08T17:54:25.563Z,100183.84
2023-01-08T17:56:56.429Z,100186.69
2023-01-08T17:59:25.101Z,100195.06
2023-01-08T18:01:54.315Z,100184.69
2023-01-08T18:04:22.860Z,100186.81
2023-01-08T18:06:51.151Z,100200.91
2023-01-08T18:09:19.572Z,100192.38
2023-01-08T18:11:47.827Z,100197.91
2023-01-08T18:14:18.058Z,100203.25
2023-01-08T18:16:46.576Z,100189.34
2023-01-08T18:19:16.852Z,100181.81
2023-01-08T18:21:45.748Z,100189.53
2023-01-08T18:24:14.503Z,100185.69
2023-01-08T18:26:44.089Z,100189.69
2023-01-08T18:29:12.635Z,100206.41
2023-01-08T18:31:45.714Z,100199.88
2023-01-08T18:34:15.394Z,100204.91
2023-01-08T18:36:43.813Z,100192.50
2023-01-08T18:39:13.351Z,100196.50
2023-01-08T18:41:58.992Z,100200.50
2023-01-08T18:44:27.543Z,100207.69
2023-01-08T18:46:57.306Z,100187.56
2023-01-08T18:49:27.630Z,100206.66
2023-01-08T18:51:55.951Z,100208.31
2023-01-08T18:54:24.281Z,100207.97
2023-01-08T18:56:52.694Z,100203.75
2023-01-08T18:59:21.141Z,100204.09
2023-01-08T19:01:49.667Z,100203.25
2023-01-08T19:04:19.510Z,100201.25
2023-01-08T19:06:48.299Z,100182.72
2023-01-08T19:09:17.475Z,100222.19
2023-01-08T19:11:46.175Z,100220.97
2023-01-08T19:14:14.915Z,100213.59
2023-01-08T19:16:49.538Z,100210.69
2023-01-08T19:19:19.445Z,100212.31
2023-01-08T19:21:47.848Z,100215.81
2023-01-08T19:24:16.230Z,100214.97
2023-01-08T19:26:44.627Z,100209.09
2023-01-08T19:29:13.055Z,100203.69
2023-01-08T19:31:41.484Z,100181.47
2023-01-08T19:34:11.724Z,100220.34
2023-01-08T19:36:43.728Z,100211.44
2023-01-08T19:39:12.411Z,100134.47
2023-01-08T19:41:58.458Z,100215.97
2023-01-08T19:44:27.357Z,100230.00
2023-01-08T19:46:55.769Z,100233.50
2023-01-08T19:49:25.738Z,100223.97
2023-01-08T19:51:55.553Z,100231.69
2023-01-08T19:54:26.002Z,100238.16
2023-01-08T19:56:54.620Z,100235.94
2023-01-08T19:59:24.829Z,100239.41
2023-01-08T20:01:53.438Z,100237.03
2023-01-08T20:04:22.196Z,100234.00
2023-01-08T20:06:52.427Z,100236.34
2023-01-08T20:09:22.260Z,100240.16
2023-01-08T20:11:50.700Z,100232.22
2023-01-08T20:14:20.972Z,100238.41
2023-01-08T20:16:49.650Z,100246.06
2023-01-08T20:19:18.049Z,100254.34
2023-01-08T20:21:46.422Z,100266.06
2023-01-08T20:24:15.374Z,100278.13
2023-01-08T20:26:46.862Z,100292.19
2023-01-08T20:29:16.730Z,100288.41
2023-01-08T20:31:45.276Z,100291.22
2023-01-08T20:34:16.392Z,100268.25
2023-01-08T20:36:45.675Z,100290.53
2023-01-08T20:39:16.526Z,100251.00
2023-01-08T20:41:55.464Z,100269.91
2023-01-08T20:44:30.476Z,100281.25
2023-01-08T20:46:59.061Z,100278.06
2023-01-08T20:49:27.763Z,100286.50
2023-01-08T20:51:59.478Z,100283.59
2023-01-08T20:54:28.854Z,100293.16
2023-01-08T20:56:59.859Z,100303.81
2023-01-08T20:59:28.828Z,100301.72
2023-01-08T21:01:57.429Z,100298.41
2023-01-08T21:04:25.975Z,100312.31
2023-01-08T21:06:54.521Z,100308.25
2023-01-08T21:09:22.956Z,100315.69
2023-01-08T21:11:51.524Z,100312.88
2023-01-08T21:14:21.318Z,100307.69
2023-01-08T21:16:50.763Z,100315.25
2023-01-08T21:19:19.258Z,100312.44
2023-01-08T21:21:47.659Z,100298.97
2023-01-08T21:24:16.711Z,100298.84
2023-01-08T21:26:46.208Z,100298.97
2023-01-08T21:29:14.878Z,100310.91
2023-01-08T21:31:45.082Z,100304.59
2023-01-08T21:34:14.091Z,100308.09
2023-01-08T21:36:42.452Z,100304.03
2023-01-08T21:39:12.146Z,100265.94
2023-01-08T21:41:57.763Z,100290.63
2023-01-08T21:44:45.222Z,100280.09
2023-01-08T21:47:18.099Z,100278.97
2023-01-08T21:49:47.152Z,100274.34
2023-01-08T21:52:33.746Z,100286.81
2023-01-08T21:55:02.585Z,100313.59
2023-01-08T21:57:30.933Z,100322.69
2023-01-08T21:59:59.256Z,100326.91
2023-01-08T22:02:29.168Z,100330.69
2023-01-08T22:04:58.540Z,100345.31
2023-01-08T22:07:27.314Z,100373.31
2023-01-08T22:09:55.921Z,100362.09
2023-01-08T22:12:25.678Z,100374.47
2023-01-08T22:14:54.528Z,100380.63
2023-01-08T22:17:24.110Z,100377.13
2023-01-08T22:19:54.777Z,100388.03
2023-01-08T22:22:23.205Z,100409.19
2023-01-08T22:24:52.337Z,100402.06
2023-01-08T22:27:21.223Z,100404.59
2023-01-08T22:29:49.882Z,100396.28
2023-01-08T22:32:18.247Z,100397.44
2023-01-08T22:34:46.640Z,100393.50
2023-01-08T22:37:18.501Z,100381.59
2023-01-08T22:39:47.107Z,100379.81
2023-01-08T22:42:15.483Z,100383.72
2023-01-08T22:44:44.140Z,100382.59
2023-01-08T22:47:12.493Z,100373.72
2023-01-08T22:49:40.961Z,100380.88
2023-01-08T22:52:09.961Z,100376.25
2023-01-08T22:54:40.185Z,100367.56
2023-01-08T22:57:09.688Z,100372.19
2023-01-08T22:59:38.377Z,100356.75
2023-01-08T23:02:06.738Z,100343.84
2023-01-08T23:04:35.065Z,100329.41
2023-01-08T23:07:03.435Z,100316.34
2023-01-08T23:09:32.064Z,100307.50
2023-01-08T23:12:02.016Z,100318.72
2023-01-08T23:14:30.446Z,100316.59
2023-01-08T23:16:58.866Z,100315.16
2023-01-08T23:19:27.555Z,100310.25
2023-01-08T23:21:55.882Z,100328.78
2023-01-08T23:24:24.293Z,100333.13
2023-01-08T23:26:52.648Z,100331.59
2023-01-08T23:29:22.435Z,100342.38
2023-01-08T23:31:51.445Z,100341.84
2023-01-08T23:34:19.786Z,100348.28
2023-01-08T23:36:48.132Z,100353.19
2023-01-08T23:39:17.841Z,100369.63
2023-01-08T23:41:46.242Z,100364.56
2023-01-08T23:44:17.018Z,100304.63
2023-01-08T23:46:46.853Z,100379.44
2023-01-08T23:49:15.234Z,100400.22
2023-01-08T23:51:43.638Z,100397.97
2023-01-08T23:54:12.991Z,100386.75
2023-01-08T23:56:43.873Z,100369.66
2023-01-08T23:59:12.944Z,100370.50
